Latest Weather Observations for Beaudesert AWS

IDQ60901

Issued at 8:21 am EST Monday 30 March 2015 (issued every 10 minutes, with the page automatically refreshed every 10 minutes)

About weather observations | Map of Brisbane area stations | Latest observations for Brisbane area | Other Formats
Station Details ID: 040983 Name: BEAUDESERT DRUMLEY STREET Lat: -27.97 Lon: 152.99 Height: 47.81 m
Data from the previous 72 hours. | See also: Recent months at Beaudesert AWS
Date/Time
EST
Tmp

°C
App
Tmp
°C
Dew
Point
°C
Rel
Hum
%
Delta-T

°C
Wind Press
QNH
hPa
Press
MSL
hPa
Rain
since
9 am
mm
Dir
 
Spd
km/h
Gust
km/h
Spd
kts
Gust
kts
30/08:00am 20.7 22.8 18.1 85 1.6 S 4 6 2 3 1024.4 1024.1 0.0
30/07:30am 19.9 21.6 17.1 84 1.7 SSW 4 6 2 3 1023.9 1023.6 0.0
30/07:00am 19.4 21.3 16.8 85 1.6 SE 2 6 1 3 1023.3 1023.0 0.0
30/06:30am 18.3 20.2 16.6 90 1.0 SSW 2 4 1 2 1023.2 1022.9 0.0
30/06:00am 18.2 20.4 16.5 90 1.0 CALM 0 0 0 0 1023.0 1022.7 0.0
30/05:30am 18.3 20.2 16.6 90 1.0 SSE 2 6 1 3 1022.6 1022.4 0.0
30/05:00am 17.9 19.8 16.6 92 0.8 S 2 6 1 3 1022.6 1022.4 0.0
30/04:30am 17.8 19.5 16.3 91 0.9 SE 2 2 1 1 1021.9 1021.7 0.0
30/04:00am 17.4 18.5 15.7 90 1.0 SSW 4 6 2 3 1021.9 1021.7 0.0
30/03:30am 17.8 19.8 16.1 90 1.0 CALM 0 0 0 0 1021.7 1021.5 0.0
30/03:00am 17.9 20.0 16.2 90 1.0 CALM 0 2 0 1 1021.9 1021.7 0.0
30/02:30am 17.8 19.8 16.0 89 1.1 CALM 0 0 0 0 1022.1 1021.9 0.0
30/02:00am 18.0 19.3 16.2 89 1.1 SSE 4 4 2 2 1022.2 1022.0 0.0
30/01:30am 18.0 20.1 16.2 89 1.1 CALM 0 0 0 0 1022.4 1022.2 0.0
30/01:00am 17.6 19.6 16.1 91 0.9 CALM 0 0 0 0 1022.5 1022.3 0.0
30/12:30am 17.2 19.0 15.4 89 1.1 CALM 0 0 0 0 1023.0 1022.7 0.0
30/12:00am 17.9 19.9 16.1 89 1.1 CALM 0 0 0 0 1023.0 1022.7 0.0
 
Date/Time
EST
Tmp

°C
App
Tmp
°C
Dew
Point
°C
Rel
Hum
%
Delta-T

°C
Wind Press
QNH
hPa
Press
MSL
hPa
Rain
since
9 am
mm
Dir
 
Spd
km/h
Gust
km/h
Spd
kts
Gust
kts
29/11:30pm 17.6 19.5 15.8 89 1.1 CALM 0 0 0 0 1023.3 1023.0 0.0
29/11:00pm 17.9 19.8 15.7 87 1.3 CALM 0 0 0 0 1023.4 1023.1 0.0
29/10:30pm 18.4 20.5 16.2 87 1.3 CALM 0 0 0 0 1023.2 1022.9 0.0
29/10:00pm 18.7 20.4 16.1 85 1.5 SE 2 4 1 2 1023.4 1023.1 0.0
29/09:30pm 18.7 20.8 16.3 86 1.4 CALM 0 0 0 0 1023.6 1023.3 0.0
29/09:00pm 19.3 21.4 16.2 82 1.8 CALM 0 0 0 0 1023.5 1023.2 0.0
29/08:30pm 19.3 21.2 15.8 80 2.1 CALM 0 2 0 1 1023.5 1023.2 0.0
29/08:00pm 21.2 22.8 16.0 72 3.1 E 2 4 1 2 1023.2 1022.9 0.0
29/07:30pm 21.3 22.4 15.6 70 3.4 E 4 7 2 4 1022.9 1022.6 0.0
29/07:00pm 22.1 22.8 15.7 67 3.8 ENE 6 9 3 5 1022.5 1022.3 0.0
29/06:30pm 22.7 23.4 15.5 64 4.3 E 6 9 3 5 1022.1 1021.9 0.0
29/06:00pm 23.4 24.1 15.7 62 4.6 ENE 6 11 3 6 1021.6 1021.4 0.0
29/05:30pm 24.5 24.8 16.0 59 5.2 ENE 9 15 5 8 1021.4 1021.2 0.0
29/05:00pm 25.4 25.3 16.0 56 5.7 NE 11 19 6 10 1020.9 1020.7 0.0
29/04:30pm 26.2 26.2 16.2 54 6.2 NE 11 19 6 10 1020.7 1020.5 0.0
29/04:00pm 26.8 26.6 16.7 54 6.3 NE 13 24 7 13 1020.6 1020.4 0.0
29/03:30pm 27.3 26.9 16.3 51 6.8 ENE 13 20 7 11 1020.3 1020.1 0.0
29/03:00pm 28.4 28.7 17.0 50 7.1 ENE 11 19 6 10 1020.3 1020.1 0.0
29/02:30pm 28.9 29.5 16.8 48 7.6 NNE 9 19 5 10 1020.6 1020.4 0.0
29/02:00pm 28.1 29.1 16.4 49 7.3 NNE 6 11 3 6 1020.8 1020.6 0.0
29/01:30pm 27.0 27.1 16.6 53 6.5 ENE 11 17 6 9 1020.8 1020.6 0.0
29/01:00pm 26.7 27.2 16.6 54 6.2 E 9 15 5 8 1021.3 1021.1 0.0
29/12:30pm 27.6 28.6 16.9 52 6.7 NNE 7 13 4 7 1021.8 1021.6 0.0
29/12:00pm 27.2 28.5 17.1 54 6.3 E 6 11 3 6 1022.0 1021.8 0.0
29/11:30am 27.8 29.0 17.3 52 6.6 NE 7 13 4 7 1022.6 1022.4 0.0
29/11:00am 26.4 27.1 16.1 53 6.3 N 7 13 4 7 1023.2 1022.9 0.0
29/10:30am 26.7 27.7 16.9 55 6.1 NE 7 13 4 7 1023.6 1023.3 0.0
29/10:00am 25.3 26.6 17.0 60 5.1 NE 6 11 3 6 1023.9 1023.6 0.0
29/09:30am 25.7 27.4 18.1 63 4.8 E 6 11 3 6 1023.8 1023.5 0.0
29/09:00am 25.9 26.9 17.8 61 5.1 ENE 9 15 5 8 1023.8 1023.5 0.0
29/08:30am 24.5 26.9 18.9 71 3.6 SSW 4 6 2 3 1023.5 1023.2 0.0
29/08:00am 22.7 25.1 18.9 79 2.4 SSW 4 6 2 3 1023.4 1023.1 0.0
29/07:30am 21.4 24.4 19.3 88 1.3 SSW 2 2 1 1 1023.0 1022.7 0.0
29/07:00am 20.7 23.9 18.8 89 1.2 CALM 0 0 0 0 1022.4 1022.2 0.0
29/06:30am 20.4 23.4 18.5 89 1.2 CALM 0 0 0 0 1022.0 1021.8 0.0
29/06:00am 20.3 23.4 18.6 90 1.1 CALM 0 0 0 0 1021.7 1021.5 0.0
29/05:30am 20.3 23.4 18.6 90 1.1 CALM 0 2 0 1 1021.4 1021.2 0.0
29/05:00am 20.1 23.0 18.2 89 1.2 CALM 0 0 0 0 1021.0 1020.8 0.0
29/04:30am 20.2 23.1 18.3 89 1.2 CALM 0 0 0 0 1020.6 1020.4 0.0
29/04:00am 20.4 23.3 18.2 87 1.4 CALM 0 0 0 0 1020.5 1020.3 0.0
29/03:30am 20.4 23.3 18.3 88 1.3 CALM 0 0 0 0 1020.4 1020.2 0.0
29/03:00am 20.2 23.1 18.1 88 1.3 CALM 0 0 0 0 1020.1 1019.9 0.0
29/02:30am 20.4 23.3 18.2 87 1.4 CALM 0 0 0 0 1020.4 1020.2 0.0
29/02:00am 20.4 22.9 18.2 87 1.4 E 2 4 1 2 1020.6 1020.4 0.0
29/01:30am 20.3 23.3 18.4 89 1.2 CALM 0 2 0 1 1021.2 1021.0 0.0
29/01:00am 19.8 22.5 17.8 88 1.2 CALM 0 0 0 0 1021.1 1020.9 0.0
29/12:30am 20.3 23.1 17.9 86 1.5 CALM 0 0 0 0 1021.2 1021.0 0.0
29/12:00am 21.1 24.0 18.3 84 1.7 CALM 0 0 0 0 1021.2 1021.0 0.0
 
Date/Time
EST
Tmp

°C
App
Tmp
°C
Dew
Point
°C
Rel
Hum
%
Delta-T

°C
Wind Press
QNH
hPa
Press
MSL
hPa
Rain
since
9 am
mm
Dir
 
Spd
km/h
Gust
km/h
Spd
kts
Gust
kts
28/11:30pm 21.5 24.1 18.5 83 1.9 ENE 2 4 1 2 1021.4 1021.2 0.0
28/11:00pm 21.4 24.3 18.2 82 2.0 CALM 0 2 0 1 1021.9 1021.7 0.0
28/10:30pm 21.1 24.0 18.1 83 1.9 CALM 0 0 0 0 1022.0 1021.8 0.0
28/10:00pm 21.3 24.2 18.1 82 2.0 CALM 0 0 0 0 1021.8 1021.6 0.0
28/09:30pm 21.4 24.0 17.6 79 2.3 CALM 0 4 0 2 1021.8 1021.6 0.0
28/09:00pm 21.5 24.2 17.7 79 2.3 CALM 0 0 0 0 1021.9 1021.7 0.0
28/08:30pm 22.0 24.6 17.4 75 2.8 CALM 0 0 0 0 1021.5 1021.3 0.0
28/08:00pm 22.0 24.9 18.2 79 2.4 CALM 0 0 0 0 1021.3 1021.1 0.0
28/07:30pm 22.4 24.3 16.7 70 3.5 E 2 4 1 2 1020.9 1020.7 0.0
28/07:00pm 23.3 24.8 16.6 66 4.1 NNW 4 6 2 3 1020.5 1020.3 0.0
28/06:30pm 23.4 25.6 16.4 64 4.3 CALM 0 6 0 3 1020.0 1019.8 0.0
28/06:00pm 23.9 24.9 16.4 63 4.6 ENE 6 11 3 6 1019.7 1019.5 0.0
28/05:30pm 24.3 24.3 16.3 61 4.9 E 11 22 6 12 1019.4 1019.2 0.0
28/05:00pm 24.9 24.5 16.3 59 5.3 E 13 22 7 12 1019.2 1019.0 0.0
28/04:30pm 26.0 25.3 16.5 55 5.9 E 15 22 8 12 1018.7 1018.5 0.0
28/04:00pm 26.7 26.7 17.2 56 5.9 E 13 22 7 12 1018.5 1018.3 0.0
28/03:30pm 27.6 28.1 17.5 54 6.4 ENE 11 20 6 11 1018.5 1018.3 0.0
28/03:00pm 27.8 28.1 17.9 54 6.3 E 13 22 7 12 1018.4 1018.2 0.0
28/02:30pm 26.3 26.4 17.4 58 5.6 ENE 13 20 7 11 1018.6 1018.4 0.0
28/02:00pm 28.0 29.3 18.4 56 6.1 NE 9 15 5 8 1018.6 1018.4 0.0
28/01:30pm 26.8 27.6 18.1 59 5.5 NE 11 19 6 10 1019.1 1018.9 0.0
28/01:00pm 27.5 29.0 19.0 59 5.5 E 9 19 5 10 1019.3 1019.1 0.0
28/12:30pm 26.9 28.2 18.5 60 5.4 E 9 15 5 8 1019.6 1019.4 0.0
28/12:00pm 28.0 28.9 18.4 56 6.1 ENE 11 17 6 9 1019.9 1019.7 0.0
28/11:30am 27.2 29.2 18.8 60 5.4 SW 6 9 3 5 1020.3 1020.1 0.0
28/11:00am 26.7 28.6 18.6 61 5.2 ENE 6 11 3 6 1020.9 1020.7 0.0
28/10:30am 26.7 29.7 19.3 64 4.8 SSW 2 6 1 3 1021.1 1020.9 0.0
28/10:00am 26.0 28.2 19.6 68 4.1 SW 7 15 4 8 1021.4 1021.2 0.0
28/09:30am 25.3 26.4 19.7 71 3.6 SW 13 20 7 11 1021.4 1021.2 0.0
28/09:00am 24.7 26.9 19.5 73 3.3 SW 7 11 4 6 1021.3 1021.1 0.2
28/08:30am 23.4 25.2 18.7 75 3.0 SW 7 11 4 6 1021.3 1021.1 0.2
28/08:00am 22.3 24.7 18.9 81 2.1 SSW 4 6 2 3 1021.0 1020.8 0.2
28/07:30am 21.6 24.9 19.0 85 1.6 CALM 0 2 0 1 1020.6 1020.4 0.2
28/07:00am 21.0 23.8 18.8 87 1.4 SSW 2 4 1 2 1020.2 1020.0 0.2
28/06:30am 20.6 23.7 18.7 89 1.2 CALM 0 0 0 0 1019.7 1019.5 0.2
28/06:00am 20.6 23.9 19.1 91 0.9 CALM 0 0 0 0 1019.4 1019.2 0.2
28/05:30am 20.6 23.7 18.7 89 1.2 CALM 0 0 0 0 1019.1 1018.9 0.2
28/05:00am 20.7 23.9 18.8 89 1.2 CALM 0 0 0 0 1018.9 1018.7 0.2
28/04:30am 20.9 24.1 18.8 88 1.3 CALM 0 0 0 0 1018.6 1018.4 0.2
28/04:00am 21.1 24.3 18.9 87 1.4 CALM 0 0 0 0 1018.4 1018.2 0.2
28/03:30am 21.2 24.5 19.1 88 1.3 CALM 0 2 0 1 1018.2 1018.0 0.2
28/03:00am 21.0 24.2 18.8 87 1.4 CALM 0 0 0 0 1018.2 1018.0 0.2
28/02:30am 21.3 23.8 19.0 87 1.5 SSW 4 6 2 3 1018.2 1018.0 0.2
28/02:00am 21.5 24.6 19.4 88 1.3 S 2 4 1 2 1018.2 1018.0 0.2
28/01:30am 21.4 24.9 19.5 89 1.2 CALM 0 0 0 0 1018.3 1018.1 0.2
28/01:00am 21.5 24.8 19.2 87 1.5 CALM 0 0 0 0 1018.6 1018.4 0.2
28/12:30am 21.6 25.0 19.3 87 1.5 CALM 0 0 0 0 1018.7 1018.5 0.2
28/12:00am 21.7 25.1 19.4 87 1.5 CALM 0 0 0 0 1018.8 1018.6 0.2
 
Date/Time
EST
Tmp

°C
App
Tmp
°C
Dew
Point
°C
Rel
Hum
%
Delta-T

°C
Wind Press
QNH
hPa
Press
MSL
hPa
Rain
since
9 am
mm
Dir
 
Spd
km/h
Gust
km/h
Spd
kts
Gust
kts
27/11:30pm 21.9 25.4 19.5 86 1.5 CALM 0 0 0 0 1019.0 1018.8 0.2
27/11:00pm 22.1 25.7 19.8 87 1.5 CALM 0 0 0 0 1019.2 1019.0 0.2
27/10:30pm 22.4 26.1 19.9 86 1.6 CALM 0 0 0 0 1019.3 1019.1 0.2
27/10:00pm 22.3 25.6 20.0 87 1.5 S 2 4 1 2 1019.5 1019.3 0.2
27/09:30pm 22.4 25.4 20.1 87 1.5 S 4 6 2 3 1019.4 1019.2 0.2
27/09:00pm 22.5 26.2 20.0 86 1.6 CALM 0 0 0 0 1019.3 1019.1 0.2
27/08:30pm 22.6 25.7 19.4 82 2.0 ESE 2 2 1 1 1019.4 1019.2 0.2
27/08:00pm 24.2 26.6 18.8 72 3.4 SSW 4 6 2 3 1019.2 1019.0 0.0
27/07:30pm 24.4 26.3 18.6 70 3.7 SSE 6 7 3 4 1018.7 1018.5 0.0
27/07:00pm 24.2 26.1 18.6 71 3.5 ESE 6 11 3 6 1018.1 1017.9 0.0
27/06:30pm 24.3 26.1 18.7 71 3.6 E 7 13 4 7 1017.5 1017.3 0.0
27/06:00pm 24.8 26.7 19.0 70 3.7 ESE 7 19 4 10 1017.1 1016.9 0.0
27/05:30pm 25.8 27.1 19.2 67 4.2 ENE 11 20 6 11 1016.7 1016.5 0.0
27/05:00pm 27.2 28.6 19.5 62 5.0 ENE 11 19 6 10 1016.2 1016.0 0.0
27/04:30pm 28.8 30.6 20.3 60 5.6 NE 11 17 6 9 1015.9 1015.7 0.0
27/04:00pm 29.1 30.3 20.0 58 6.0 NNE 13 20 7 11 1015.6 1015.4 0.0
27/03:30pm 30.0 32.2 20.5 56 6.3 NE 9 17 5 9 1015.4 1015.2 0.0
27/03:00pm 31.3 31.4 14.0 35 10.5 W 6 7 3 4 1015.4 1015.2 0.0
27/02:30pm 31.6 32.2 14.3 35 10.5 NW 4 6 2 3 1015.5 1015.3 0.0
27/02:00pm 30.6 30.6 12.5 33 10.7 S 4 7 2 4 1015.9 1015.7 0.0
27/01:30pm 30.9 30.5 12.3 32 11.0 WSW 6 11 3 6 1016.3 1016.1 0.0
27/01:00pm 30.4 30.3 13.2 35 10.3 W 6 9 3 5 1016.7 1016.5 0.0
27/12:30pm 30.0 30.1 14.5 38 9.4 SW 7 11 4 6 1017.1 1016.9 0.0
27/12:00pm 29.4 30.4 16.9 47 7.8 W 7 15 4 8 1017.6 1017.4 0.0
27/11:30am 29.2 31.5 18.6 52 6.8 W 4 9 2 5 1018.0 1017.8 0.0
27/11:00am 28.3 30.7 18.7 56 6.2 SW 4 7 2 4 1018.5 1018.3 0.0
27/10:30am 27.6 29.9 19.4 61 5.3 SSW 6 7 3 4 1018.8 1018.6 0.0
27/10:00am 27.2 29.8 20.0 64 4.7 SW 6 13 3 7 1019.0 1018.8 0.0
27/09:30am 26.4 29.6 21.2 73 3.4 WSW 6 7 3 4 1018.9 1018.7 0.0
27/09:00am 25.5 28.8 21.4 78 2.7 WSW 6 9 3 5 1019.0 1018.8 0.0
27/08:30am 24.5 28.3 21.0 81 2.3 WSW 2 6 1 3 1019.0 1018.8 0.0

Latest Capital City Observations: Canberra | Sydney | Melbourne | Brisbane | Adelaide | Perth | Hobart | Darwin

Other Formats:

Comma delimited format used in spreadsheet applications
http://www.bom.gov.au/fwo/IDQ60901/IDQ60901.95575.axf

JavaScript Object Notation format (JSON) in row-major order
http://www.bom.gov.au/fwo/IDQ60901/IDQ60901.95575.json